Time;durP1;ratioP1;P1;durP2;ratioP2;P2;SDS_P1;SDS_P2;PMS_P1;PMS_P2;Temp;Humidity;BMP_temperature;BMP_pressure;BME280_temperature;BME280_humidity;BME280_pressure;Samples;Min_cycle;Max_cycle;Signal;HPM_P1;HPM_P2
2023/03/27 00:00:11;;;;;;;1.10;0.20;;;12.10;56.50;;;;;;4958643;28;20027;-87
2023/03/27 00:02:43;;;;;;;0.20;0.20;;;12.10;57.50;;;;;;4958542;28;20384;-88
2023/03/27 00:05:12;;;;;;;0.20;0.20;;;12.00;56.70;;;;;;4957675;28;20027;-88
2023/03/27 00:07:47;;;;;;;0.52;0.22;;;11.90;56.90;;;;;;4965494;28;20129;-88
2023/03/27 00:10:34;;;;;;;2.63;0.30;;;11.90;57.10;;;;;;4962385;28;20023;-88
2023/03/27 00:13:04;;;;;;;0.20;0.20;;;11.90;57.20;;;;;;4958587;28;20023;-88
2023/03/27 00:15:42;;;;;;;0.20;0.20;;;11.80;57.40;;;;;;4967307;28;20031;-87
2023/03/27 00:18:14;;;;;;;0.80;0.43;;;11.80;57.50;;;;;;4957222;28;20031;-88
2023/03/27 00:20:41;;;;;;;1.15;0.50;;;11.80;57.80;;;;;;4957251;28;20027;-86
2023/03/27 00:23:07;;;;;;;0.38;0.38;;;11.80;58.40;;;;;;4957637;28;20034;-85
2023/03/27 00:25:34;;;;;;;0.35;0.25;;;11.80;58.90;;;;;;4958237;28;20599;-89
2023/03/27 00:28:01;;;;;;;0.43;0.30;;;11.70;59.30;;;;;;4957918;28;20037;-88
2023/03/27 00:30:30;;;;;;;2.20;0.47;;;11.70;59.60;;;;;;4958040;28;20023;-87
2023/03/27 00:32:58;;;;;;;0.30;0.20;;;11.70;59.70;;;;;;4958006;28;20019;-90
2023/03/27 00:35:27;;;;;;;0.82;0.40;;;11.60;59.80;;;;;;4947459;28;20030;-86
2023/03/27 00:37:53;;;;;;;1.02;0.50;;;11.60;59.90;;;;;;4958070;28;20117;-89
2023/03/27 00:40:20;;;;;;;1.00;0.43;;;11.60;60.20;;;;;;4957849;28;20395;-88
2023/03/27 00:42:51;;;;;;;0.82;0.50;;;11.50;60.60;;;;;;4972125;28;20023;-89
2023/03/27 00:45:29;;;;;;;0.73;0.30;;;11.50;60.80;;;;;;4981183;28;20049;-89
2023/03/27 00:48:00;;;;;;;0.73;0.30;;;11.50;61.20;;;;;;4964066;28;20026;-87
2023/03/27 00:50:35;;;;;;;1.33;0.45;;;11.40;61.20;;;;;;4972438;28;20447;-89
2023/03/27 00:53:06;;;;;;;1.23;0.60;;;11.40;61.30;;;;;;4960069;28;20469;-85
2023/03/27 00:55:39;;;;;;;1.15;0.60;;;11.40;61.60;;;;;;4976694;28;20027;-90
2023/03/27 00:58:30;;;;;;;2.90;0.77;;;11.40;61.80;;;;;;4962656;28;20034;-88
2023/03/27 01:00:56;;;;;;;1.27;0.60;;;11.40;61.90;;;;;;4959898;28;20073;-85
2023/03/27 01:03:30;;;;;;;1.40;0.55;;;11.30;62.00;;;;;;4965142;28;20089;-87
2023/03/27 01:05:59;;;;;;;0.30;0.30;;;11.30;62.20;;;;;;4963754;28;20168;-87
2023/03/27 01:08:28;;;;;;;0.60;0.40;;;11.30;62.20;;;;;;4972117;28;20439;-88
2023/03/27 01:11:02;;;;;;;0.55;0.55;;;11.30;62.30;;;;;;4959016;28;20023;-87
2023/03/27 01:13:57;;;;;;;0.38;0.28;;;11.20;62.20;;;;;;4967433;28;20023;-87
2023/03/27 01:16:38;;;;;;;0.60;0.30;;;11.20;62.20;;;;;;4914833;29;20160;-85
2023/03/27 01:19:09;;;;;;;1.05;0.47;;;11.10;62.30;;;;;;4905487;29;20032;-87
2023/03/27 01:22:24;;;;;;;1.33;0.65;;;11.20;62.40;;;;;;4904520;29;20036;-89
2023/03/27 01:24:58;;;;;;;1.25;0.50;;;11.20;62.60;;;;;;4884014;29;20031;-87
2023/03/27 01:28:01;;;;;;;0.33;0.33;;;11.20;62.70;;;;;;4909577;29;20099;-87
2023/03/27 01:30:40;;;;;;;4.53;0.65;;;11.20;62.90;;;;;;4916287;29;20274;-87
2023/03/27 01:33:16;;;;;;;0.93;0.50;;;11.20;63.20;;;;;;4911525;29;20088;-86
2023/03/27 01:35:55;;;;;;;2.05;0.70;;;11.20;63.40;;;;;;4892452;29;20099;-87
2023/03/27 01:38:37;;;;;;;0.65;0.57;;;11.20;63.50;;;;;;4899598;29;20024;-85
2023/03/27 01:41:26;;;;;;;1.48;0.68;;;11.20;63.80;;;;;;4915439;29;20119;-89
2023/03/27 01:44:16;;;;;;;1.38;0.50;;;11.20;64.30;;;;;;4915096;29;20051;-87
2023/03/27 01:46:51;;;;;;;1.33;0.70;;;11.20;64.70;;;;;;4908507;29;20470;-87
2023/03/27 01:49:26;;;;;;;2.22;0.70;;;11.30;64.80;;;;;;4915503;29;20047;-86
2023/03/27 01:51:57;;;;;;;1.40;0.73;;;11.20;65.20;;;;;;4915633;29;20032;-87
2023/03/27 01:54:36;;;;;;;2.63;0.90;;;11.20;65.20;;;;;;4964863;28;20039;-86
2023/03/27 01:57:48;;;;;;;1.13;0.55;;;11.20;65.20;;;;;;4978054;28;20483;-86
2023/03/27 02:00:21;;;;;;;0.63;0.60;;;11.20;65.20;;;;;;4980943;28;20499;-87
2023/03/27 02:03:23;;;;;;;0.90;0.60;;;11.20;65.40;;;;;;4980724;28;20022;-86
2023/03/27 02:06:12;;;;;;;2.78;0.45;;;11.20;65.90;;;;;;4971004;28;20089;-87
2023/03/27 02:09:10;;;;;;;1.23;0.60;;;11.20;65.90;;;;;;4989696;28;20096;-87
2023/03/27 02:21:30;;;;;;;2.35;0.75;;;11.20;66.40;;;;;;4990378;28;20070;-90
2023/03/27 02:28:02;;;;;;;1.38;0.70;;;11.20;66.40;;;;;;4996058;28;20034;-88
2023/03/27 02:31:07;;;;;;;3.70;1.58;;;11.20;66.10;;;;;;4980843;28;20030;-87
2023/03/27 02:37:06;;;;;;;1.10;1.00;;;11.20;65.20;;;;;;4985143;28;19942;-88
2023/03/27 02:40:04;;;;;;;1.00;0.90;;;11.30;66.00;;;;;;4977385;28;20121;-86
2023/03/27 02:42:57;;;;;;;;;;;;;;;;;;;;;
2023/03/27 02:46:08;;;;;;;1.20;1.08;;;11.20;66.20;;;;;;4977427;28;20047;-89
2023/03/27 02:49:31;;;;;;;;;;;;;;;;;;;;;
2023/03/27 02:52:05;;;;;;;1.35;1.10;;;11.20;66.30;;;;;;4976996;28;20023;-86
2023/03/27 02:57:48;;;;;;;1.52;1.10;;;11.20;65.50;;;;;;4957809;29;19957;-88
2023/03/27 03:00:38;;;;;;;3.47;1.20;;;11.20;66.10;;;;;;4958662;29;20473;-88
2023/03/27 03:03:43;;;;;;;3.13;1.30;;;11.30;66.30;;;;;;4950848;29;20090;-85
2023/03/27 03:06:13;;;;;;;2.17;1.23;;;11.30;66.30;;;;;;4897587;29;20123;-85
2023/03/27 03:09:00;;;;;;;1.98;1.13;;;11.30;66.20;;;;;;4886612;29;20056;-87
2023/03/27 03:11:35;;;;;;;3.08;1.48;;;11.30;66.50;;;;;;4887350;29;20415;-85
2023/03/27 03:14:09;;;;;;;2.45;1.45;;;11.30;66.40;;;;;;4887084;29;20115;-85
2023/03/27 03:16:35;;;;;;;3.90;1.58;;;11.30;66.20;;;;;;4887863;29;20041;-87
2023/03/27 03:19:03;;;;;;;3.08;1.40;;;11.30;66.40;;;;;;4899374;29;20047;-86
2023/03/27 03:21:35;;;;;;;4.15;1.50;;;11.30;66.50;;;;;;4883788;29;20056;-87
2023/03/27 03:24:01;;;;;;;4.18;1.38;;;11.30;66.30;;;;;;4883167;29;20036;-84
2023/03/27 03:26:33;;;;;;;2.60;1.42;;;11.30;66.30;;;;;;4883097;29;20479;-87
2023/03/27 03:29:04;;;;;;;2.90;1.30;;;11.30;66.00;;;;;;4883158;29;20036;-87
2023/03/27 03:31:42;;;;;;;1.73;1.20;;;11.20;66.00;;;;;;4882719;29;20565;-87
2023/03/27 03:34:18;;;;;;;2.15;1.48;;;11.20;65.60;;;;;;4882638;29;20040;-88
2023/03/27 03:36:47;;;;;;;1.75;1.10;;;11.20;65.50;;;;;;4883458;29;20040;-86
2023/03/27 03:39:17;;;;;;;3.28;1.45;;;11.20;65.30;;;;;;4883238;29;20064;-87
2023/03/27 03:41:43;;;;;;;2.40;1.50;;;11.20;65.30;;;;;;4883173;29;20021;-90
2023/03/27 03:44:11;;;;;;;2.70;1.50;;;11.20;65.30;;;;;;4936284;29;20035;-87
2023/03/27 03:46:43;;;;;;;2.15;1.30;;;11.20;65.30;;;;;;4939995;29;20469;-86
2023/03/27 03:49:14;;;;;;;2.00;1.35;;;11.10;65.10;;;;;;4941004;29;20030;-85
2023/03/27 03:51:43;;;;;;;2.67;1.33;;;11.10;65.30;;;;;;4941328;29;20030;-89
2023/03/27 03:54:09;;;;;;;6.18;1.63;;;11.10;65.50;;;;;;4967187;28;20033;-89
2023/03/27 03:56:41;;;;;;;3.33;1.70;;;11.10;65.70;;;;;;4959458;28;20023;-87
2023/03/27 03:59:10;;;;;;;2.47;1.42;;;11.10;65.90;;;;;;4959005;28;20109;-87
2023/03/27 04:01:39;;;;;;;4.32;1.75;;;11.10;66.10;;;;;;4958999;28;20030;-87
2023/03/27 04:04:08;;;;;;;3.03;1.58;;;11.10;66.10;;;;;;4959167;28;20030;-87
2023/03/27 04:06:39;;;;;;;2.90;1.90;;;11.10;66.10;;;;;;4958933;28;20023;-88
2023/03/27 04:09:11;;;;;;;4.03;1.83;;;11.10;65.90;;;;;;4959132;28;20170;-85
2023/03/27 04:11:55;;;;;;;2.20;1.40;;;11.00;65.80;;;;;;4960031;28;20062;-87
2023/03/27 04:14:24;;;;;;;3.92;1.70;;;11.00;65.70;;;;;;4959467;28;20392;-86
2023/03/27 04:16:50;;;;;;;4.45;1.90;;;11.10;65.60;;;;;;4959127;28;20030;-86
2023/03/27 04:19:21;;;;;;;1.52;1.15;;;11.10;65.30;;;;;;4958997;28;20042;-87
2023/03/27 04:21:55;;;;;;;2.00;1.30;;;11.10;65.10;;;;;;4959076;28;20388;-86
2023/03/27 04:24:24;;;;;;;2.45;1.48;;;11.10;64.80;;;;;;4960047;28;20125;-89
2023/03/27 04:26:53;;;;;;;3.03;1.58;;;11.10;64.80;;;;;;4959033;28;20350;-87
2023/03/27 04:29:21;;;;;;;1.25;1.10;;;11.20;64.90;;;;;;4939625;29;20027;-85
2023/03/27 04:31:47;;;;;;;5.25;1.40;;;11.20;64.70;;;;;;4939743;29;20434;-87
2023/03/27 04:34:19;;;;;;;3.65;1.00;;;11.20;64.70;;;;;;4939283;29;20119;-87
2023/03/27 04:36:45;;;;;;;2.33;1.40;;;11.20;64.70;;;;;;4956600;29;20026;-88
2023/03/27 04:39:15;;;;;;;1.55;1.10;;;11.30;64.50;;;;;;4955136;29;20492;-89
2023/03/27 04:41:44;;;;;;;3.30;1.20;;;11.30;64.50;;;;;;4955081;29;20110;-88
2023/03/27 04:44:16;;;;;;;2.67;1.25;;;11.30;64.40;;;;;;4955274;28;20066;-88
2023/03/27 04:46:47;;;;;;;2.25;1.27;;;11.30;64.10;;;;;;4929010;29;20032;-88
2023/03/27 04:49:17;;;;;;;17.65;11.05;;;11.40;63.80;;;;;;4952312;29;20031;-89
2023/03/27 04:51:46;;;;;;;6.25;3.50;;;11.40;63.50;;;;;;4954575;29;20023;-89
2023/03/27 04:54:15;;;;;;;1.10;1.00;;;11.30;63.70;;;;;;4958473;28;20034;-89
2023/03/27 04:56:41;;;;;;;2.25;1.20;;;11.40;63.70;;;;;;4971428;28;20030;-86
2023/03/27 04:59:07;;;;;;;2.88;1.20;;;11.40;63.40;;;;;;4977777;28;20034;-89
2023/03/27 05:01:36;;;;;;;1.58;0.90;;;11.40;63.30;;;;;;4977160;28;20133;-88
2023/03/27 05:04:05;;;;;;;1.05;0.90;;;11.40;63.10;;;;;;4976898;28;20384;-90
2023/03/27 05:09:36;;;;;;;1.83;1.27;;;11.40;62.60;;;;;;4980962;28;20034;-89
2023/03/27 05:12:06;;;;;;;4.55;1.63;;;11.50;62.50;;;;;;4977483;28;20031;-87
2023/03/27 05:14:35;;;;;;;1.73;1.23;;;11.50;62.40;;;;;;4977338;28;20049;-87
2023/03/27 05:17:14;;;;;;;1.58;1.00;;;11.40;62.50;;;;;;4977441;28;20042;-90
2023/03/27 05:19:40;;;;;;;1.35;0.88;;;11.40;62.20;;;;;;4967331;28;20038;-87
2023/03/27 05:22:06;;;;;;;1.25;1.00;;;11.40;62.10;;;;;;4973784;28;20039;-89
2023/03/27 05:24:32;;;;;;;3.47;1.20;;;11.50;62.10;;;;;;4966532;28;20050;-88
2023/03/27 05:26:59;;;;;;;1.95;1.10;;;11.50;61.90;;;;;;4959376;28;20400;-88
2023/03/27 05:29:28;;;;;;;7.75;1.52;;;11.50;62.00;;;;;;4957921;28;20035;-87
2023/03/27 05:31:54;;;;;;;1.60;0.95;;;11.50;62.00;;;;;;4960461;28;20027;-89
2023/03/27 05:34:25;;;;;;;4.63;1.98;;;11.50;61.90;;;;;;4975123;28;20095;-86
2023/03/27 05:36:57;;;;;;;3.30;1.20;;;11.60;62.10;;;;;;4978768;28;20022;-88
2023/03/27 05:39:26;;;;;;;1.63;0.98;;;11.60;62.10;;;;;;4960967;28;20400;-86
2023/03/27 05:41:52;;;;;;;2.53;0.90;;;11.60;62.20;;;;;;4961966;28;20113;-88
2023/03/27 05:44:18;;;;;;;3.25;0.90;;;11.60;62.10;;;;;;4977551;28;20053;-86
2023/03/27 05:46:52;;;;;;;1.17;0.75;;;11.60;61.80;;;;;;4977894;28;20030;-86
2023/03/27 05:49:21;;;;;;;;;;;11.70;61.70;;;;;;4961052;28;20388;-87
2023/03/27 05:51:49;;;;;;;2.17;1.05;;;11.80;61.70;;;;;;4978891;28;20351;-88
2023/03/27 05:54:18;;;;;;;2.05;0.90;;;11.80;61.40;;;;;;4960129;28;20027;-87
2023/03/27 05:56:44;;;;;;;2.72;1.17;;;11.90;61.20;;;;;;4960688;28;20623;-87
2023/03/27 05:59:09;;;;;;;2.50;1.02;;;11.90;61.20;;;;;;4961273;28;20114;-88
2023/03/27 06:01:38;;;;;;;1.55;1.00;;;11.90;60.70;;;;;;4960835;28;20034;-82
2023/03/27 06:04:04;;;;;;;1.98;1.10;;;12.00;60.50;;;;;;4961479;28;20058;-88
2023/03/27 06:06:36;;;;;;;1.40;1.00;;;12.00;60.40;;;;;;4961249;28;20035;-87
2023/03/27 06:09:02;;;;;;;2.13;1.00;;;12.10;60.30;;;;;;4960355;28;20035;-87
2023/03/27 06:11:33;;;;;;;3.90;0.90;;;12.10;60.10;;;;;;4963390;28;20019;-87
2023/03/27 06:13:59;;;;;;;2.03;1.05;;;12.10;60.20;;;;;;4959906;28;20047;-87
2023/03/27 06:16:31;;;;;;;4.40;1.40;;;12.20;60.20;;;;;;4961547;28;20399;-86
2023/03/27 06:18:57;;;;;;;3.13;1.10;;;12.10;60.00;;;;;;4960976;28;20034;-86
2023/03/27 06:21:26;;;;;;;1.83;1.10;;;12.20;59.90;;;;;;4960723;28;20125;-88
2023/03/27 06:24:02;;;;;;;2.63;1.10;;;12.20;59.90;;;;;;4961582;28;20057;-87
2023/03/27 06:26:28;;;;;;;3.42;1.13;;;12.20;60.00;;;;;;4972931;28;20023;-87
2023/03/27 06:28:55;;;;;;;3.20;1.50;;;12.20;59.90;;;;;;4960832;28;20102;-86
2023/03/27 06:31:21;;;;;;;4.22;1.95;;;12.10;59.70;;;;;;4964335;28;20023;-88
2023/03/27 06:33:47;;;;;;;1.88;1.25;;;12.10;59.70;;;;;;4960216;28;20124;-88
2023/03/27 06:36:13;;;;;;;4.53;1.23;;;12.20;59.90;;;;;;4960676;28;20473;-87
2023/03/27 06:38:42;;;;;;;1.60;1.30;;;12.10;60.00;;;;;;4960942;28;20084;-87
2023/03/27 06:41:12;;;;;;;2.25;1.10;;;12.10;59.90;;;;;;4960721;28;20034;-87
2023/03/27 06:43:40;;;;;;;3.13;1.38;;;12.00;59.90;;;;;;4949478;28;20027;-87
2023/03/27 06:46:10;;;;;;;0.90;0.90;;;12.10;60.10;;;;;;4960163;28;20488;-86
2023/03/27 06:48:36;;;;;;;4.72;1.30;;;12.10;60.30;;;;;;4959274;28;20034;-87
2023/03/27 06:51:10;;;;;;;1.05;0.95;;;12.10;60.40;;;;;;4960358;28;20040;-87
2023/03/27 06:53:36;;;;;;;1.95;1.45;;;12.10;60.90;;;;;;4960272;28;20031;-89
2023/03/27 06:56:02;;;;;;;3.35;1.35;;;12.10;61.20;;;;;;4966957;28;20539;-86
2023/03/27 06:58:31;;;;;;;2.75;1.70;;;12.00;61.80;;;;;;4979256;28;20026;-88
2023/03/27 07:01:02;;;;;;;3.42;1.60;;;12.10;62.60;;;;;;4996807;28;20022;-88
2023/03/27 07:03:28;;;;;;;16.58;2.20;;;12.10;63.00;;;;;;4979136;28;20033;-87
2023/03/27 07:05:54;;;;;;;3.33;1.70;;;12.10;63.60;;;;;;4978236;28;20038;-87
2023/03/27 07:08:20;;;;;;;2.78;2.05;;;12.10;65.40;;;;;;4980239;28;20051;-86
2023/03/27 07:10:46;;;;;;;4.57;2.20;;;12.00;67.70;;;;;;4995672;28;20030;-86
2023/03/27 07:13:12;;;;;;;4.03;2.20;;;12.00;67.20;;;;;;4996688;28;20029;-86
2023/03/27 07:15:41;;;;;;;4.40;2.30;;;11.90;66.70;;;;;;4966267;28;20121;-84
2023/03/27 07:18:08;;;;;;;6.88;3.10;;;11.80;66.90;;;;;;4960353;28;20384;-84
2023/03/27 07:20:34;;;;;;;5.82;2.70;;;11.80;67.20;;;;;;4976907;28;20072;-82
2023/03/27 07:23:01;;;;;;;3.72;2.50;;;11.70;67.50;;;;;;4977120;28;20031;-82
2023/03/27 07:25:36;;;;;;;3.20;2.60;;;11.70;67.80;;;;;;4961402;28;20042;-82
2023/03/27 07:28:11;;;;;;;3.03;2.33;;;11.60;68.00;;;;;;4978908;28;20054;-82
2023/03/27 07:30:37;;;;;;;1.42;1.00;;;11.60;68.30;;;;;;4939130;29;20028;-81
2023/03/27 07:33:06;;;;;;;3.35;0.93;;;11.50;65.90;;;;;;4939454;29;20031;-83
2023/03/27 07:35:32;;;;;;;0.68;0.57;;;11.30;63.70;;;;;;4958980;29;20027;-84
2023/03/27 07:37:58;;;;;;;1.00;0.90;;;11.20;61.50;;;;;;4963253;29;20027;-83
2023/03/27 07:40:25;;;;;;;2.13;1.33;;;11.10;61.90;;;;;;4965851;28;20081;-86
2023/03/27 07:42:52;;;;;;;1.75;0.80;;;11.10;58.80;;;;;;4977445;28;20464;-85
2023/03/27 07:45:20;;;;;;;0.63;0.63;;;11.00;58.00;;;;;;4959568;28;20051;-84
2023/03/27 07:47:51;;;;;;;0.75;0.60;;;10.90;58.60;;;;;;4959398;28;20030;-84
2023/03/27 07:50:24;;;;;;;0.82;0.50;;;10.90;59.10;;;;;;4959155;28;20031;-87
2023/03/27 07:52:50;;;;;;;0.73;0.50;;;11.00;59.90;;;;;;4957124;28;20106;-90
2023/03/27 07:55:17;;;;;;;1.13;0.77;;;11.20;60.90;;;;;;4959071;28;20125;-89
2023/03/27 07:57:46;;;;;;;0.40;0.30;;;11.30;61.10;;;;;;4958784;28;20377;-85
2023/03/27 08:00:16;;;;;;;1.50;0.50;;;11.40;60.50;;;;;;4958763;28;20432;-86
2023/03/27 08:02:45;;;;;;;0.77;0.40;;;11.40;58.00;;;;;;4960230;28;20473;-86
2023/03/27 08:05:13;;;;;;;2.42;0.50;;;11.50;57.80;;;;;;4958384;28;20054;-87
2023/03/27 08:07:44;;;;;;;1.20;0.40;;;11.60;56.70;;;;;;4958986;28;20074;-86
2023/03/27 08:10:21;;;;;;;0.30;0.30;;;11.50;56.20;;;;;;4958810;28;20030;-88
2023/03/27 08:12:57;;;;;;;0.40;0.30;;;11.50;55.30;;;;;;4960111;28;20110;-86
2023/03/27 08:15:26;;;;;;;0.30;0.30;;;11.60;55.80;;;;;;4959009;28;20543;-87
2023/03/27 08:18:05;;;;;;;0.95;0.55;;;11.60;55.60;;;;;;4958590;28;20038;-87
2023/03/27 08:20:48;;;;;;;1.65;0.75;;;11.60;55.00;;;;;;4958788;28;20037;-90
2023/03/27 08:23:29;;;;;;;0.70;0.35;;;11.70;55.20;;;;;;4961050;28;20392;-87
2023/03/27 08:25:59;;;;;;;1.10;0.50;;;11.80;54.10;;;;;;4977600;28;20037;-89
2023/03/27 08:28:35;;;;;;;1.45;0.45;;;11.80;53.90;;;;;;4965354;28;20026;-88
2023/03/27 08:31:14;;;;;;;0.68;0.47;;;11.90;53.90;;;;;;4958137;28;20469;-88
2023/03/27 08:33:48;;;;;;;0.40;0.40;;;11.90;54.70;;;;;;4958254;28;20029;-88
2023/03/27 08:36:30;;;;;;;0.82;0.65;;;12.00;55.30;;;;;;4957695;28;20035;-88
2023/03/27 08:39:02;;;;;;;2.03;0.40;;;12.20;55.20;;;;;;4958621;28;20033;-90
2023/03/27 08:41:37;;;;;;;0.50;0.50;;;12.30;54.30;;;;;;4958922;28;20422;-86
2023/03/27 08:44:30;;;;;;;2.17;1.25;;;12.30;53.20;;;;;;4957849;28;20039;-87
2023/03/27 08:47:10;;;;;;;1.88;0.80;;;12.30;52.00;;;;;;4973714;28;20066;-86
2023/03/27 08:50:03;;;;;;;0.60;0.40;;;12.30;51.40;;;;;;4958173;28;20039;-86
2023/03/27 08:52:37;;;;;;;0.40;0.30;;;12.40;51.80;;;;;;4958358;28;20109;-87
2023/03/27 08:55:21;;;;;;;0.63;0.50;;;12.40;51.30;;;;;;4967066;28;20031;-87
2023/03/27 08:57:57;;;;;;;1.83;0.57;;;12.30;50.60;;;;;;4974301;28;20035;-88
2023/03/27 09:00:37;;;;;;;0.50;0.40;;;12.40;50.90;;;;;;4957956;28;20358;-86
2023/03/27 09:03:12;;;;;;;1.98;0.60;;;12.50;51.30;;;;;;4958300;28;20077;-87
2023/03/27 09:05:56;;;;;;;1.17;0.30;;;12.50;49.70;;;;;;4974819;28;20094;-88
2023/03/27 09:08:51;;;;;;;1.02;0.55;;;12.40;48.70;;;;;;4977060;28;20023;-87
2023/03/27 09:11:40;;;;;;;0.60;0.40;;;12.40;49.10;;;;;;4961779;28;20384;-86
2023/03/27 09:14:46;;;;;;;1.17;0.38;;;12.50;49.80;;;;;;4961498;28;20039;-88
2023/03/27 09:17:23;;;;;;;0.30;0.30;;;12.60;49.20;;;;;;4897982;29;20059;-87
2023/03/27 09:19:55;;;;;;;0.50;0.22;;;12.70;48.70;;;;;;4884311;29;20052;-87
2023/03/27 09:22:35;;;;;;;0.40;0.22;;;12.80;49.10;;;;;;4885218;29;20056;-86
2023/03/27 09:25:13;;;;;;;0.43;0.20;;;12.70;48.10;;;;;;4884492;29;20101;-88
2023/03/27 09:27:45;;;;;;;1.77;0.40;;;12.80;49.00;;;;;;4888554;29;20055;-89
2023/03/27 09:30:18;;;;;;;1.65;0.57;;;12.90;47.80;;;;;;4892572;29;20027;-88
2023/03/27 09:33:19;;;;;;;2.08;0.40;;;12.80;47.10;;;;;;4898130;29;20092;-85
2023/03/27 09:35:48;;;;;;;0.45;0.35;;;12.80;47.60;;;;;;4866587;29;20120;-85
2023/03/27 09:38:34;;;;;;;0.50;0.45;;;12.90;48.40;;;;;;4866415;29;20050;-87
2023/03/27 09:41:14;;;;;;;0.60;0.52;;;12.90;48.40;;;;;;4885349;29;20042;-87
2023/03/27 09:44:07;;;;;;;0.65;0.50;;;13.00;48.70;;;;;;4885110;29;20036;-87
2023/03/27 09:46:42;;;;;;;1.13;0.60;;;13.10;47.80;;;;;;4884479;29;20060;-88
2023/03/27 09:49:16;;;;;;;0.40;0.40;;;13.00;48.30;;;;;;4900965;29;20127;-87
2023/03/27 09:51:55;;;;;;;0.40;0.40;;;13.00;48.20;;;;;;4886488;29;20029;-87
2023/03/27 09:54:27;;;;;;;2.83;0.40;;;12.90;47.20;;;;;;4949085;28;20472;-86
2023/03/27 09:57:05;;;;;;;3.17;0.57;;;12.80;47.70;;;;;;4961357;28;20035;-87
2023/03/27 09:59:42;;;;;;;1.95;0.30;;;12.70;46.30;;;;;;4961843;28;20377;-86
2023/03/27 10:02:53;;;;;;;1.33;0.50;;;12.60;46.10;;;;;;4976943;28;20034;-87
2023/03/27 10:05:24;;;;;;;2.92;0.60;;;12.70;45.40;;;;;;4884184;29;20071;-86
2023/03/27 10:07:52;;;;;;;0.52;0.47;;;12.50;44.00;;;;;;4903047;29;20127;-87
2023/03/27 10:10:24;;;;;;;5.80;0.40;;;12.40;44.40;;;;;;4914647;29;20027;-88
2023/03/27 10:12:56;;;;;;;2.03;0.57;;;12.50;45.80;;;;;;4902899;29;20039;-86
2023/03/27 10:15:39;;;;;;;2.25;0.80;;;12.40;46.20;;;;;;4904565;29;20064;-87
2023/03/27 10:18:26;;;;;;;0.52;0.40;;;12.40;46.90;;;;;;4906046;29;20544;-88
2023/03/27 10:21:01;;;;;;;0.90;0.60;;;12.50;47.00;;;;;;4914642;29;20024;-86
2023/03/27 10:23:45;;;;;;;1.30;0.60;;;12.40;46.60;;;;;;4924906;29;20012;-85
2023/03/27 10:26:16;;;;;;;1.25;0.90;;;12.30;46.70;;;;;;4904066;29;20044;-86
2023/03/27 10:28:47;;;;;;;0.98;0.70;;;12.30;46.70;;;;;;4902922;29;20119;-87
2023/03/27 10:31:42;;;;;;;2.92;1.15;;;12.30;45.70;;;;;;4901107;29;20043;-89
2023/03/27 10:34:31;;;;;;;1.35;0.88;;;12.30;45.40;;;;;;4903551;28;20028;-87
2023/03/27 10:37:02;;;;;;;2.90;0.95;;;12.40;45.90;;;;;;4953143;29;20023;-87
2023/03/27 10:39:35;;;;;;;2.25;0.90;;;12.40;43.90;;;;;;4959741;28;20031;-88
2023/03/27 10:42:07;;;;;;;2.85;1.10;;;12.50;42.70;;;;;;4961567;28;20050;-89
2023/03/27 10:44:36;;;;;;;1.60;0.77;;;12.50;42.80;;;;;;4960714;28;20480;-86
2023/03/27 10:47:19;;;;;;;0.85;0.80;;;12.60;43.60;;;;;;4960919;28;20125;-87
2023/03/27 10:50:30;;;;;;;2.17;1.13;;;12.60;42.40;;;;;;4963929;28;20031;-87
2023/03/27 10:53:14;;;;;;;2.50;1.05;;;12.40;40.60;;;;;;4988014;28;20050;-86
2023/03/27 10:55:57;;;;;;;3.45;1.50;;;12.50;41.80;;;;;;4967946;28;20041;-87
2023/03/27 10:58:37;;;;;;;1.25;0.88;;;12.40;42.20;;;;;;4972781;28;20042;-87
2023/03/27 11:01:45;;;;;;;2.15;0.73;;;12.30;41.90;;;;;;4960980;28;20234;-87
2023/03/27 11:04:22;;;;;;;2.10;1.08;;;12.40;42.20;;;;;;4961071;28;20070;-87
2023/03/27 11:06:56;;;;;;;1.25;0.82;;;12.50;41.20;;;;;;4960817;28;20051;-87
2023/03/27 11:09:28;;;;;;;2.80;1.00;;;12.50;40.50;;;;;;4960363;28;20086;-87
2023/03/27 11:12:10;;;;;;;3.25;1.10;;;12.60;41.30;;;;;;4959706;28;20085;-88
2023/03/27 11:15:00;;;;;;;2.55;0.98;;;12.60;40.50;;;;;;4960314;28;20500;-87
2023/03/27 11:17:58;;;;;;;3.42;1.00;;;12.70;41.00;;;;;;4958720;28;20041;-86
2023/03/27 11:20:35;;;;;;;0.80;0.70;;;12.80;41.50;;;;;;4958238;28;20484;-88
2023/03/27 11:23:16;;;;;;;1.80;0.70;;;13.00;41.20;;;;;;4959873;28;20476;-86
2023/03/27 11:25:52;;;;;;;4.03;0.95;;;12.90;39.50;;;;;;4966212;28;20453;-87
2023/03/27 11:28:53;;;;;;;1.20;0.93;;;12.90;40.10;;;;;;4955619;28;20087;-87
2023/03/27 11:31:42;;;;;;;3.88;1.08;;;13.00;40.70;;;;;;4945883;28;20030;-86
2023/03/27 11:34:41;;;;;;;3.35;0.90;;;12.90;39.70;;;;;;4959381;28;20066;-87
2023/03/27 11:37:39;;;;;;;3.13;1.00;;;12.80;40.10;;;;;;4940889;29;20031;-89
2023/03/27 11:40:28;;;;;;;1.73;0.90;;;12.80;39.80;;;;;;4940139;29;20086;-88
2023/03/27 11:42:54;;;;;;;3.20;1.00;;;12.80;40.00;;;;;;4940634;29;20370;-88
2023/03/27 11:45:28;;;;;;;2.15;0.90;;;12.80;40.50;;;;;;4939967;29;20058;-88
2023/03/27 11:48:32;;;;;;;2.35;0.90;;;12.70;39.50;;;;;;4939937;29;20039;-86
2023/03/27 11:51:23;;;;;;;3.60;1.27;;;12.60;39.80;;;;;;4948682;29;20027;-86
2023/03/27 11:53:49;;;;;;;2.05;1.02;;;12.60;40.30;;;;;;4962437;28;20126;-87
2023/03/27 11:56:32;;;;;;;1.17;0.73;;;12.70;40.70;;;;;;4958126;28;20059;-88
2023/03/27 11:59:07;;;;;;;1.77;0.82;;;12.70;40.40;;;;;;4960094;28;20492;-88
2023/03/27 12:02:14;;;;;;;2.75;1.08;;;12.70;40.60;;;;;;4976789;28;20045;-88
2023/03/27 12:04:57;;;;;;;1.05;0.95;;;12.70;40.40;;;;;;4948908;29;20063;-88
2023/03/27 12:07:51;;;;;;;2.90;1.10;;;12.80;40.00;;;;;;4958086;28;20028;-87
2023/03/27 12:10:39;;;;;;;2.80;1.00;;;12.70;40.20;;;;;;4970312;28;20058;-88
2023/03/27 12:13:29;;;;;;;2.08;0.90;;;12.80;39.80;;;;;;4958934;28;20038;-87
2023/03/27 12:16:36;;;;;;;1.92;1.30;;;12.70;40.00;;;;;;4972721;28;20026;-88
2023/03/27 12:19:12;;;;;;;2.45;1.30;;;12.80;41.70;;;;;;4896157;29;20036;-88
2023/03/27 12:21:54;;;;;;;3.63;1.67;;;12.80;40.70;;;;;;4923271;29;20031;-87
2023/03/27 12:24:41;;;;;;;5.15;2.33;;;12.80;40.60;;;;;;4919351;29;20144;-87
2023/03/27 12:27:31;;;;;;;3.63;2.15;;;12.80;40.50;;;;;;4920047;29;20032;-88
2023/03/27 12:30:40;;;;;;;2.28;1.50;;;12.80;40.60;;;;;;4910022;29;20120;-89
2023/03/27 12:33:30;;;;;;;3.28;1.83;;;12.90;41.20;;;;;;4914576;29;20028;-86
2023/03/27 12:36:01;;;;;;;6.72;1.60;;;13.00;41.40;;;;;;4900603;29;20053;-86
2023/03/27 12:38:36;;;;;;;1.63;1.00;;;13.10;41.20;;;;;;4916946;29;20123;-87
2023/03/27 12:41:20;;;;;;;9.52;4.18;;;13.00;40.80;;;;;;4886043;29;20040;-81
2023/03/27 12:43:47;;;;;;;5.15;2.40;;;13.10;40.50;;;;;;4897263;29;20028;-82
2023/03/27 12:46:22;;;;;;;3.35;1.42;;;13.20;40.90;;;;;;4899839;29;20052;-82
2023/03/27 12:49:00;;;;;;;2.72;1.60;;;13.20;41.00;;;;;;4920350;29;20051;-82
2023/03/27 13:06:32;;;;;;;3.28;1.13;;;13.30;39.10;;;;;;5049205;23;20066;-95
2023/03/27 13:09:30;;;;;;;2.45;1.33;;;13.40;38.90;;;;;;4985460;28;20039;-94
2023/03/27 13:12:35;;;;;;;3.85;0.95;;;13.50;38.30;;;;;;4986996;28;20027;-94
2023/03/27 13:15:43;;;;;;;1.65;1.13;;;13.60;39.00;;;;;;5018160;28;20034;-93
2023/03/27 13:18:54;;;;;;;2.20;1.40;;;13.60;38.00;;;;;;5010201;28;20058;-94
2023/03/27 13:21:48;;;;;;;4.50;1.40;;;13.70;37.10;;;;;;4993498;28;20045;-96
2023/03/27 13:24:35;;;;;;;2.13;1.38;;;13.70;37.50;;;;;;5006918;28;20124;-92
2023/03/27 13:27:29;;;;;;;5.20;1.60;;;13.70;38.00;;;;;;5006270;28;20030;-94
2023/03/27 13:29:57;;;;;;;2.87;1.53;;;13.70;37.80;;;;;;5006685;28;20026;-95
2023/03/27 13:32:43;;;;;;;3.67;1.80;;;13.80;38.20;;;;;;5026524;28;20273;-95
2023/03/27 13:35:21;;;;;;;1.77;1.30;;;13.70;37.00;;;;;;5054326;23;20524;-77
2023/03/27 13:37:50;;;;;;;4.53;2.53;;;13.80;37.50;;;;;;4992170;28;20023;-74
2023/03/27 13:40:26;;;;;;;2.47;1.80;;;13.70;36.50;;;;;;4993520;28;20025;-74
2023/03/27 13:43:13;;;;;;;3.65;1.30;;;13.70;36.20;;;;;;4993397;28;20506;-77
2023/03/27 13:45:46;;;;;;;1.85;1.38;;;13.70;35.50;;;;;;4993279;28;20364;-73
2023/03/27 13:48:24;;;;;;;2.35;1.55;;;13.70;35.00;;;;;;4993188;28;20022;-74
2023/03/27 13:50:59;;;;;;;5.40;1.50;;;13.60;35.90;;;;;;4994242;28;20053;-78
2023/03/27 13:53:35;;;;;;;3.95;1.60;;;13.50;35.90;;;;;;4996941;28;20030;-74
2023/03/27 13:56:22;;;;;;;1.10;1.00;;;13.50;36.80;;;;;;4997443;28;20026;-80
2023/03/27 13:59:00;;;;;;;1.73;1.10;;;13.50;37.20;;;;;;4979510;28;20025;-72
2023/03/27 14:01:40;;;;;;;2.40;1.30;;;13.50;37.10;;;;;;4996725;28;20026;-73
2023/03/27 14:04:32;;;;;;;1.98;1.02;;;13.50;37.00;;;;;;4996664;28;20490;-74
2023/03/27 14:07:18;;;;;;;1.30;1.00;;;13.30;36.30;;;;;;4994037;28;20027;-77
2023/03/27 14:09:50;;;;;;;2.58;1.13;;;13.30;36.90;;;;;;4996185;28;20058;-78
2023/03/27 14:12:43;;;;;;;2.38;1.20;;;13.30;37.30;;;;;;4993245;28;20054;-75
2023/03/27 14:15:28;;;;;;;2.90;1.10;;;13.30;37.20;;;;;;4995468;28;20394;-76
2023/03/27 14:17:59;;;;;;;;;;;13.40;36.20;;;;;;4995596;28;20030;-74